Time;durP1;ratioP1;P1;durP2;ratioP2;P2;SDS_P1;SDS_P2;PMS_P1;PMS_P2;Temp;Humidity;BMP_temperature;BMP_pressure;BME280_temperature;BME280_humidity;BME280_pressure;Samples;Min_cycle;Max_cycle;Signal;HPM_P1;HPM_P2
2023/07/25 00:02:12;;;;;;;;;;;21.40;69.10;;;;;;5057227;28;20376;-54
2023/07/25 00:04:38;;;;;;;;;;;21.40;69.20;;;;;;5056465;28;20308;-54
2023/07/25 00:07:03;;;;;;;;;;;21.40;69.10;;;;;;5057750;28;19920;-54
2023/07/25 00:09:29;;;;;;;;;;;21.40;69.00;;;;;;5056315;28;19916;-55
2023/07/25 00:11:54;;;;;;;;;;;21.40;69.00;;;;;;5051451;28;20332;-54
2023/07/25 00:14:20;;;;;;;;;;;21.40;69.10;;;;;;5053670;28;19916;-54
2023/07/25 00:16:45;;;;;;;;;;;21.40;69.00;;;;;;5050141;28;19919;-55
2023/07/25 00:19:10;;;;;;;;;;;21.40;69.10;;;;;;5052154;28;19959;-54
2023/07/25 00:21:36;;;;;;;;;;;21.40;69.10;;;;;;5050969;28;19952;-54
2023/07/25 00:24:02;;;;;;;;;;;21.40;68.80;;;;;;5057505;28;19920;-54
2023/07/25 00:26:27;;;;;;;;;;;21.30;68.80;;;;;;5053349;28;19921;-54
2023/07/25 00:28:52;;;;;;;;;;;21.30;68.80;;;;;;5049813;28;19917;-55
2023/07/25 00:31:18;;;;;;;;;;;21.40;68.80;;;;;;5052325;28;19916;-54
2023/07/25 00:33:43;;;;;;;;;;;21.30;68.70;;;;;;5053467;28;19917;-54
2023/07/25 00:36:09;;;;;;;;;;;21.30;68.70;;;;;;5051785;28;19923;-54
2023/07/25 00:38:34;;;;;;;;;;;21.30;69.30;;;;;;5055183;28;19917;-54
2023/07/25 00:41:00;;;;;;;;;;;21.30;68.50;;;;;;5052748;28;20281;-54
2023/07/25 00:43:25;;;;;;;;;;;21.30;68.50;;;;;;5061998;28;20335;-54
2023/07/25 00:45:51;;;;;;;;;;;21.30;68.50;;;;;;5055748;28;19945;-54
2023/07/25 00:48:16;;;;;;;;;;;21.30;68.30;;;;;;5056794;28;19917;-54
2023/07/25 00:50:42;;;;;;;;;;;21.20;68.30;;;;;;5053307;28;19917;-54
2023/07/25 00:53:09;;;;;;;;;;;21.30;68.40;;;;;;5055376;28;19921;-54
2023/07/25 00:55:35;;;;;;;;;;;21.30;68.30;;;;;;5055761;28;20334;-54
2023/07/25 00:58:00;;;;;;;;;;;21.30;68.30;;;;;;5054994;28;19916;-55
2023/07/25 01:00:25;;;;;;;;;;;21.30;68.30;;;;;;5061281;28;20408;-54
2023/07/25 01:02:51;;;;;;;;;;;21.30;68.20;;;;;;5069994;28;20296;-54
2023/07/25 01:05:16;;;;;;;;;;;21.30;68.20;;;;;;5057521;28;19924;-54
2023/07/25 01:07:42;;;;;;;;;;;21.30;68.10;;;;;;5062318;28;20237;-54
2023/07/25 01:10:07;;;;;;;;;;;21.30;68.10;;;;;;5070429;28;19928;-54
2023/07/25 01:12:33;;;;;;;;;;;21.30;68.20;;;;;;5063777;28;19917;-54
2023/07/25 01:14:58;;;;;;;;;;;21.30;68.00;;;;;;5066911;28;19912;-54
2023/07/25 01:17:24;;;;;;;;;;;21.20;68.10;;;;;;5060459;28;19912;-54
2023/07/25 01:19:49;;;;;;;;;;;21.30;68.00;;;;;;5068051;28;19972;-55
2023/07/25 01:22:15;;;;;;;;;;;21.20;67.80;;;;;;5059684;28;19919;-53
2023/07/25 01:24:41;;;;;;;;;;;21.30;67.90;;;;;;5068617;28;20366;-55
2023/07/25 01:27:06;;;;;;;;;;;21.20;67.80;;;;;;5065636;28;19913;-54
2023/07/25 01:29:32;;;;;;;;;;;21.20;68.00;;;;;;5066107;28;19917;-54
2023/07/25 01:31:57;;;;;;;;;;;21.20;68.00;;;;;;5058940;28;19928;-54
2023/07/25 01:34:23;;;;;;;;;;;21.10;68.00;;;;;;5055353;28;20285;-54
2023/07/25 01:36:48;;;;;;;;;;;21.20;68.00;;;;;;5060202;28;19917;-54
2023/07/25 01:39:13;;;;;;;;;;;21.20;67.80;;;;;;5060938;28;19979;-54
2023/07/25 01:41:39;;;;;;;;;;;21.20;67.90;;;;;;5057878;28;19923;-55
2023/07/25 01:44:05;;;;;;;;;;;21.20;67.80;;;;;;5059960;28;19965;-54
2023/07/25 01:46:30;;;;;;;;;;;21.20;68.00;;;;;;5059693;28;19924;-54
2023/07/25 01:48:56;;;;;;;;;;;21.20;67.80;;;;;;5055970;28;19963;-54
2023/07/25 01:51:21;;;;;;;;;;;21.20;67.80;;;;;;5061232;28;20361;-54
2023/07/25 01:53:46;;;;;;;;;;;21.20;67.80;;;;;;5061973;28;20272;-54
2023/07/25 01:56:12;;;;;;;;;;;21.20;67.80;;;;;;5061051;28;20008;-54
2023/07/25 01:58:37;;;;;;;;;;;21.10;67.60;;;;;;5062849;28;19917;-54
2023/07/25 02:01:03;;;;;;;;;;;21.10;67.60;;;;;;5061416;28;19920;-55
2023/07/25 02:03:28;;;;;;;;;;;21.10;67.60;;;;;;5054951;28;19921;-54
2023/07/25 02:05:54;;;;;;;;;;;21.10;67.60;;;;;;5060816;28;20054;-54
2023/07/25 02:08:19;;;;;;;;;;;21.10;67.60;;;;;;5058701;28;20011;-54
2023/07/25 02:10:45;;;;;;;;;;;21.10;67.70;;;;;;5057034;28;19917;-54
2023/07/25 02:13:10;;;;;;;;;;;21.10;67.60;;;;;;5056139;28;20434;-54
2023/07/25 02:15:36;;;;;;;;;;;21.10;67.60;;;;;;5054926;28;20464;-54
2023/07/25 02:18:01;;;;;;;;;;;21.10;67.60;;;;;;5059082;28;19913;-54
2023/07/25 02:20:29;;;;;;;;;;;21.10;67.60;;;;;;5058215;28;19919;-54
2023/07/25 02:22:55;;;;;;;;;;;21.10;67.60;;;;;;5053601;28;19917;-54
2023/07/25 02:25:20;;;;;;;;;;;21.10;67.60;;;;;;5054292;28;20061;-54
2023/07/25 02:27:45;;;;;;;;;;;21.10;67.60;;;;;;5056259;28;19913;-54
2023/07/25 02:30:11;;;;;;;;;;;21.10;67.60;;;;;;5060314;28;19912;-54
2023/07/25 02:32:36;;;;;;;;;;;21.10;67.60;;;;;;5062695;28;19913;-54
2023/07/25 02:35:02;;;;;;;;;;;21.10;67.50;;;;;;5052638;28;19913;-54
2023/07/25 02:37:27;;;;;;;;;;;21.10;67.60;;;;;;5054712;28;19916;-54
2023/07/25 02:39:53;;;;;;;;;;;21.10;67.50;;;;;;5062624;28;19921;-54
2023/07/25 02:42:18;;;;;;;;;;;21.10;67.50;;;;;;5061740;28;19959;-54
2023/07/25 02:44:43;;;;;;;;;;;21.10;67.50;;;;;;5057379;28;19921;-55
2023/07/25 02:47:09;;;;;;;;;;;21.10;67.40;;;;;;5065970;28;19921;-54
2023/07/25 02:49:34;;;;;;;;;;;21.00;67.30;;;;;;5054960;28;19925;-55
2023/07/25 02:52:00;;;;;;;;;;;21.00;67.20;;;;;;5058567;28;20007;-54
2023/07/25 02:54:25;;;;;;;;;;;21.00;67.60;;;;;;5054206;28;19909;-54
2023/07/25 02:56:51;;;;;;;;;;;21.00;67.30;;;;;;5055628;28;19916;-54
2023/07/25 02:59:18;;;;;;;;;;;21.00;67.20;;;;;;5057170;28;19999;-54
2023/07/25 03:01:43;;;;;;;;;;;21.00;67.30;;;;;;5054525;28;19954;-54
2023/07/25 03:04:08;;;;;;;;;;;21.00;67.80;;;;;;5053489;28;19921;-54
2023/07/25 03:06:34;;;;;;;;;;;21.00;67.20;;;;;;5062432;28;19920;-54
2023/07/25 03:08:59;;;;;;;;;;;21.00;67.10;;;;;;5058112;28;19932;-53
2023/07/25 03:11:25;;;;;;;;;;;21.00;67.00;;;;;;5052923;28;19916;-54
2023/07/25 03:13:50;;;;;;;;;;;21.00;67.00;;;;;;5053851;28;19924;-54
2023/07/25 03:16:16;;;;;;;;;;;20.90;67.80;;;;;;5061286;28;19913;-54
2023/07/25 03:18:41;;;;;;;;;;;20.90;67.00;;;;;;5064475;28;20011;-54
2023/07/25 03:21:07;;;;;;;;;;;20.90;66.90;;;;;;5056120;28;19913;-54
2023/07/25 03:23:32;;;;;;;;;;;20.90;67.00;;;;;;5050763;28;19920;-54
2023/07/25 03:25:58;;;;;;;;;;;20.90;66.70;;;;;;5058700;28;19927;-54
2023/07/25 03:28:24;;;;;;;;;;;20.90;66.90;;;;;;5053089;28;20335;-54
2023/07/25 03:30:49;;;;;;;;;;;20.90;66.70;;;;;;5053247;28;19913;-54
2023/07/25 03:33:14;;;;;;;;;;;20.90;66.70;;;;;;5059307;28;19923;-54
2023/07/25 03:35:41;;;;;;;;;;;20.90;66.80;;;;;;5053191;28;19915;-54
2023/07/25 03:38:06;;;;;;;;;;;20.90;66.60;;;;;;5058949;28;19912;-54
2023/07/25 03:40:32;;;;;;;;;;;20.90;66.60;;;;;;5054301;28;20397;-54
2023/07/25 03:42:57;;;;;;;;;;;20.90;66.70;;;;;;5057148;28;20012;-54
2023/07/25 03:45:23;;;;;;;;;;;20.90;66.60;;;;;;5052808;28;20002;-54
2023/07/25 03:47:48;;;;;;;;;;;20.90;66.60;;;;;;5059639;28;19962;-54
2023/07/25 03:50:14;;;;;;;;;;;20.90;66.60;;;;;;5057581;28;19931;-54
2023/07/25 03:52:39;;;;;;;;;;;20.90;66.50;;;;;;5055471;28;19923;-54
2023/07/25 03:55:05;;;;;;;;;;;20.90;66.60;;;;;;5053002;28;19943;-54
2023/07/25 03:57:30;;;;;;;;;;;20.90;66.60;;;;;;5052721;28;19951;-54
2023/07/25 03:59:56;;;;;;;;;;;20.90;66.60;;;;;;5063335;28;19956;-54
2023/07/25 04:02:21;;;;;;;;;;;20.90;66.50;;;;;;5052531;28;19916;-54
2023/07/25 04:04:47;;;;;;;;;;;20.90;66.50;;;;;;5059235;28;19966;-54
2023/07/25 04:07:12;;;;;;;;;;;20.90;66.50;;;;;;5052594;28;20011;-54
2023/07/25 04:09:38;;;;;;;;;;;20.80;66.40;;;;;;5059309;28;19925;-54
2023/07/25 04:12:03;;;;;;;;;;;20.90;66.50;;;;;;5055638;28;19958;-54
2023/07/25 04:14:29;;;;;;;;;;;20.90;67.30;;;;;;5057478;28;19917;-54
2023/07/25 04:16:54;;;;;;;;;;;20.90;66.50;;;;;;5052234;28;19923;-54
2023/07/25 04:19:20;;;;;;;;;;;20.80;66.50;;;;;;5053193;28;19962;-54
2023/07/25 04:21:45;;;;;;;;;;;20.90;66.40;;;;;;5057816;28;19917;-54
2023/07/25 04:24:10;;;;;;;;;;;20.90;66.40;;;;;;5050569;28;20008;-54
2023/07/25 04:26:36;;;;;;;;;;;20.90;66.50;;;;;;5060990;28;19932;-54
2023/07/25 04:29:01;;;;;;;;;;;20.90;67.30;;;;;;5059341;28;19917;-55
2023/07/25 04:31:27;;;;;;;;;;;20.90;66.40;;;;;;5066897;28;19920;-54
2023/07/25 04:33:52;;;;;;;;;;;20.90;66.40;;;;;;5059794;28;19959;-54
2023/07/25 04:36:18;;;;;;;;;;;20.90;66.40;;;;;;5062427;28;20019;-54
2023/07/25 04:38:43;;;;;;;;;;;20.90;66.40;;;;;;5055677;28;19920;-54
2023/07/25 04:41:08;;;;;;;;;;;20.80;66.40;;;;;;5056836;28;20506;-54
2023/07/25 04:43:34;;;;;;;;;;;20.90;66.40;;;;;;5057062;28;20495;-54
2023/07/25 04:45:59;;;;;;;;;;;20.80;66.30;;;;;;5052127;28;20339;-54
2023/07/25 04:48:25;;;;;;;;;;;20.80;66.30;;;;;;5059292;28;19921;-54
2023/07/25 04:50:50;;;;;;;;;;;20.80;66.30;;;;;;5061651;28;20105;-54
2023/07/25 04:53:16;;;;;;;;;;;20.90;66.40;;;;;;5059979;28;19909;-54
2023/07/25 04:55:41;;;;;;;;;;;20.90;66.30;;;;;;5065213;28;19919;-54
2023/07/25 04:58:07;;;;;;;;;;;20.90;66.30;;;;;;5063392;28;19994;-54
2023/07/25 05:00:32;;;;;;;;;;;20.80;66.20;;;;;;5057051;28;20436;-54
2023/07/25 05:02:58;;;;;;;;;;;20.80;66.20;;;;;;5063918;28;20342;-54
2023/07/25 05:05:23;;;;;;;;;;;20.80;66.20;;;;;;5056834;28;20320;-54
2023/07/25 05:07:48;;;;;;;;;;;20.80;66.10;;;;;;5062957;28;19955;-54
2023/07/25 05:10:14;;;;;;;;;;;20.80;65.90;;;;;;5053212;28;19971;-54
2023/07/25 05:12:39;;;;;;;;;;;20.80;66.00;;;;;;5059409;28;19927;-54
2023/07/25 05:15:05;;;;;;;;;;;20.80;66.10;;;;;;5061305;28;20026;-54
2023/07/25 05:17:30;;;;;;;;;;;20.80;66.00;;;;;;5060888;28;19913;-54
2023/07/25 05:19:56;;;;;;;;;;;20.80;66.10;;;;;;5056531;28;19913;-54
2023/07/25 05:22:21;;;;;;;;;;;20.80;66.00;;;;;;5061823;28;19916;-54
2023/07/25 05:24:47;;;;;;;;;;;20.80;66.00;;;;;;5057301;28;20423;-54
2023/07/25 05:27:12;;;;;;;;;;;20.80;66.00;;;;;;5062216;28;19985;-54
2023/07/25 05:29:38;;;;;;;;;;;20.80;65.80;;;;;;5059516;28;20068;-54
2023/07/25 05:32:03;;;;;;;;;;;20.80;65.90;;;;;;5061952;28;19981;-54
2023/07/25 05:34:29;;;;;;;;;;;20.80;65.80;;;;;;5061658;28;19939;-54
2023/07/25 05:36:54;;;;;;;;;;;20.80;65.70;;;;;;5057550;28;19917;-54
2023/07/25 05:39:20;;;;;;;;;;;20.80;65.80;;;;;;5052883;28;19924;-54
2023/07/25 05:41:45;;;;;;;;;;;20.80;65.70;;;;;;5055269;28;19970;-54
2023/07/25 05:44:11;;;;;;;;;;;20.80;65.60;;;;;;5059761;28;20050;-54
2023/07/25 05:46:36;;;;;;;;;;;20.80;65.70;;;;;;5056907;28;19970;-55
2023/07/25 05:49:02;;;;;;;;;;;20.80;65.60;;;;;;5056378;28;19928;-54
2023/07/25 05:51:27;;;;;;;;;;;20.80;65.50;;;;;;5055418;28;19924;-54
2023/07/25 05:53:53;;;;;;;;;;;20.80;65.40;;;;;;5063156;28;19920;-54
2023/07/25 05:56:18;;;;;;;;;;;20.80;65.40;;;;;;5056488;28;19916;-54
2023/07/25 05:58:43;;;;;;;;;;;20.80;65.50;;;;;;5056760;28;19917;-54
2023/07/25 06:01:09;;;;;;;;;;;20.80;65.40;;;;;;5058067;28;20007;-54
2023/07/25 06:03:34;;;;;;;;;;;20.80;65.40;;;;;;5051254;28;19916;-54
2023/07/25 06:06:00;;;;;;;;;;;20.80;65.50;;;;;;5057205;28;19917;-54
2023/07/25 06:08:25;;;;;;;;;;;20.80;65.50;;;;;;5059632;28;19913;-54
2023/07/25 06:10:51;;;;;;;;;;;20.70;65.50;;;;;;5053794;28;19967;-54
2023/07/25 06:13:16;;;;;;;;;;;20.70;65.50;;;;;;5052386;28;19919;-54
2023/07/25 06:15:42;;;;;;;;;;;20.70;65.50;;;;;;5056349;28;19999;-54
2023/07/25 06:18:07;;;;;;;;;;;20.70;65.50;;;;;;5055219;28;19916;-54
2023/07/25 06:20:33;;;;;;;;;;;20.70;65.40;;;;;;5054332;28;19913;-54
2023/07/25 06:22:59;;;;;;;;;;;20.70;65.40;;;;;;5057041;28;19920;-54
2023/07/25 06:25:24;;;;;;;;;;;20.70;65.30;;;;;;5068179;28;19912;-55
2023/07/25 06:27:50;;;;;;;;;;;20.70;65.40;;;;;;5060542;28;20284;-54
2023/07/25 06:30:15;;;;;;;;;;;20.70;65.50;;;;;;5061550;28;20537;-54
2023/07/25 06:32:41;;;;;;;;;;;20.70;65.50;;;;;;5057790;28;20345;-54
2023/07/25 06:35:07;;;;;;;;;;;20.70;65.50;;;;;;5051185;28;19917;-54
2023/07/25 06:37:32;;;;;;;;;;;20.70;65.40;;;;;;5054784;28;19923;-54
2023/07/25 06:40:00;;;;;;;;;;;20.70;65.40;;;;;;5062382;28;19967;-54
2023/07/25 06:42:28;;;;;;;;;;;20.70;65.50;;;;;;5056519;28;19968;-54
2023/07/25 06:44:53;;;;;;;;;;;20.70;65.50;;;;;;5052687;28;19909;-54
2023/07/25 06:47:19;;;;;;;;;;;20.70;65.40;;;;;;5054121;28;19927;-54
2023/07/25 06:49:44;;;;;;;;;;;20.70;65.40;;;;;;5059247;28;20028;-54
2023/07/25 06:52:10;;;;;;;;;;;20.70;65.40;;;;;;5057607;28;19923;-54
2023/07/25 06:54:36;;;;;;;;;;;20.70;65.50;;;;;;5058759;28;19916;-54
2023/07/25 06:57:01;;;;;;;;;;;20.80;65.50;;;;;;5065125;28;20360;-54
2023/07/25 06:59:29;;;;;;;;;;;20.70;65.60;;;;;;5052815;28;19955;-55
2023/07/25 07:01:55;;;;;;;;;;;20.80;65.60;;;;;;5045265;28;20258;-55
2023/07/25 07:04:20;;;;;;;;;;;20.80;65.60;;;;;;5051984;28;19999;-55
2023/07/25 07:06:46;;;;;;;;;;;20.80;65.50;;;;;;5050874;28;20399;-53
2023/07/25 07:09:11;;;;;;;;;;;20.80;66.20;;;;;;5056697;28;19929;-52
2023/07/25 07:11:37;;;;;;;;;;;20.80;65.30;;;;;;5052094;28;19943;-53
2023/07/25 07:14:02;;;;;;;;;;;20.80;65.20;;;;;;5050482;28;19913;-55
2023/07/25 07:16:28;;;;;;;;;;;20.80;65.20;;;;;;5057567;28;19924;-55
2023/07/25 07:18:53;;;;;;;;;;;20.80;65.20;;;;;;5062160;28;19913;-52
2023/07/25 07:21:18;;;;;;;;;;;20.80;65.20;;;;;;5060580;28;19924;-52
2023/07/25 07:23:44;;;;;;;;;;;20.80;65.00;;;;;;5057294;28;20362;-54
2023/07/25 07:26:09;;;;;;;;;;;20.90;65.00;;;;;;5057972;28;19951;-54
2023/07/25 07:28:35;;;;;;;;;;;20.90;65.00;;;;;;5053200;28;19917;-54
2023/07/25 07:31:00;;;;;;;;;;;20.90;65.00;;;;;;5052314;28;19913;-55
2023/07/25 07:33:26;;;;;;;;;;;20.90;65.00;;;;;;5053203;28;19916;-54
2023/07/25 07:35:51;;;;;;;;;;;20.90;64.90;;;;;;5053904;28;20171;-52
2023/07/25 07:38:17;;;;;;;;;;;20.90;64.90;;;;;;5052946;28;19919;-53
2023/07/25 07:40:42;;;;;;;;;;;20.90;64.80;;;;;;5051953;28;19943;-55
2023/07/25 07:43:08;;;;;;;;;;;20.90;64.80;;;;;;5049722;28;19916;-53
2023/07/25 07:45:33;;;;;;;;;;;20.90;64.90;;;;;;5056475;28;20047;-53
2023/07/25 07:48:00;;;;;;;;;;;20.90;64.80;;;;;;5052640;28;19965;-53
2023/07/25 07:50:29;;;;;;;;;;;20.90;64.70;;;;;;5052017;28;21285;-54
2023/07/25 07:52:54;;;;;;;;;;;20.90;64.80;;;;;;5052016;28;19994;-53
2023/07/25 07:55:20;;;;;;;;;;;20.90;64.70;;;;;;5050060;28;19948;-53
2023/07/25 07:57:46;;;;;;;;;;;20.80;64.70;;;;;;5050069;28;19932;-53
2023/07/25 08:00:13;;;;;;;;;;;20.90;64.80;;;;;;5058633;28;19958;-53
2023/07/25 08:02:39;;;;;;;;;;;20.90;64.70;;;;;;5051764;28;20428;-53
2023/07/25 08:05:04;;;;;;;;;;;20.90;64.60;;;;;;5052653;28;19912;-54
2023/07/25 08:07:30;;;;;;;;;;;20.90;64.70;;;;;;5057922;28;20015;-53
2023/07/25 08:09:55;;;;;;;;;;;20.90;64.70;;;;;;5049518;28;19917;-53
2023/07/25 08:12:21;;;;;;;;;;;20.90;64.60;;;;;;5054712;28;19916;-54
2023/07/25 08:14:47;;;;;;;;;;;20.90;64.50;;;;;;5055467;28;19909;-53
2023/07/25 08:17:13;;;;;;;;;;;21.00;64.50;;;;;;5049426;28;19963;-53
2023/07/25 08:19:38;;;;;;;;;;;20.90;64.30;;;;;;5054137;28;20276;-53
2023/07/25 08:22:04;;;;;;;;;;;21.00;64.30;;;;;;5057507;28;19916;-53
2023/07/25 08:24:29;;;;;;;;;;;20.90;64.30;;;;;;5059925;28;19942;-53
2023/07/25 08:26:54;;;;;;;;;;;20.90;64.30;;;;;;5056654;28;20380;-54
2023/07/25 08:29:20;;;;;;;;;;;20.90;64.40;;;;;;5059714;28;20397;-53
2023/07/25 08:31:45;;;;;;;;;;;20.90;64.30;;;;;;5053463;28;20392;-54
2023/07/25 08:34:11;;;;;;;;;;;20.90;64.40;;;;;;5056814;28;20285;-53
2023/07/25 08:36:36;;;;;;;;;;;20.90;64.60;;;;;;5061009;28;19917;-53
2023/07/25 08:39:02;;;;;;;;;;;20.90;64.80;;;;;;5067171;28;19912;-53
2023/07/25 08:41:28;;;;;;;;;;;21.00;64.90;;;;;;5071110;28;19940;-53
2023/07/25 08:43:53;;;;;;;;;;;21.00;64.90;;;;;;5056518;28;19967;-53
2023/07/25 08:46:19;;;;;;;;;;;21.00;64.80;;;;;;5053220;28;19920;-53
2023/07/25 08:48:44;;;;;;;;;;;21.00;64.60;;;;;;5054550;28;19925;-54
2023/07/25 08:51:14;;;;;;;;;;;21.00;64.60;;;;;;5074365;28;19920;-53
2023/07/25 08:53:41;;;;;;;;;;;21.00;64.60;;;;;;5059267;28;19920;-53
2023/07/25 08:56:06;;;;;;;;;;;21.00;64.60;;;;;;5057125;28;20369;-53
2023/07/25 08:58:32;;;;;;;;;;;21.10;64.70;;;;;;5055433;28;19916;-53
2023/07/25 09:00:57;;;;;;;;;;;21.00;64.60;;;;;;5067061;28;19913;-53
2023/07/25 09:03:23;;;;;;;;;;;21.00;64.60;;;;;;5061172;28;19909;-53
2023/07/25 09:05:48;;;;;;;;;;;21.10;64.70;;;;;;5056663;28;19920;-53
2023/07/25 09:08:14;;;;;;;;;;;21.10;64.60;;;;;;5060125;28;20667;-53
2023/07/25 09:10:39;;;;;;;;;;;21.10;64.60;;;;;;5062055;28;20281;-53
2023/07/25 09:13:05;;;;;;;;;;;21.00;64.50;;;;;;5056027;28;20003;-54
2023/07/25 09:15:30;;;;;;;;;;;21.10;64.50;;;;;;5057528;28;19913;-53
2023/07/25 09:17:56;;;;;;;;;;;21.00;64.40;;;;;;5055102;28;19916;-53
2023/07/25 09:20:21;;;;;;;;;;;21.10;64.50;;;;;;5054392;28;19923;-53
2023/07/25 09:22:48;;;;;;;;;;;21.10;64.60;;;;;;5054765;28;19909;-53
2023/07/25 09:25:13;;;;;;;;;;;21.10;64.70;;;;;;5053180;28;19913;-53
2023/07/25 09:27:39;;;;;;;;;;;21.10;65.00;;;;;;5058898;28;19939;-54
2023/07/25 09:30:09;;;;;;;;;;;21.10;65.00;;;;;;5057556;28;20281;-53
2023/07/25 09:32:36;;;;;;;;;;;21.10;65.00;;;;;;5062720;28;19957;-53
2023/07/25 09:35:02;;;;;;;;;;;21.10;65.00;;;;;;5056578;28;19908;-53
2023/07/25 09:37:27;;;;;;;;;;;21.10;65.10;;;;;;5058407;28;20384;-54
2023/07/25 09:39:53;;;;;;;;;;;21.10;65.10;;;;;;5050139;28;19913;-54
2023/07/25 09:42:22;;;;;;;;;;;21.10;65.10;;;;;;5061158;28;19995;-54
2023/07/25 09:44:48;;;;;;;;;;;21.10;65.00;;;;;;5054777;28;19913;-53
2023/07/25 09:47:14;;;;;;;;;;;21.20;65.20;;;;;;5059554;28;20479;-54
2023/07/25 09:49:46;;;;;;;;;;;21.10;65.10;;;;;;5055549;28;20019;-53
2023/07/25 09:52:11;;;;;;;;;;;21.10;65.20;;;;;;5052350;28;19944;-54
2023/07/25 09:54:37;;;;;;;;;;;21.10;65.30;;;;;;5053867;28;20012;-53
2023/07/25 09:57:02;;;;;;;;;;;21.10;65.40;;;;;;5062528;28;19917;-54
2023/07/25 09:59:28;;;;;;;;;;;21.10;65.50;;;;;;5053482;28;19962;-53
2023/07/25 10:01:53;;;;;;;;;;;21.10;65.50;;;;;;5061379;28;19912;-53
2023/07/25 10:04:19;;;;;;;;;;;21.10;65.50;;;;;;5061661;28;19999;-54
2023/07/25 10:06:44;;;;;;;;;;;21.10;65.40;;;;;;5057449;28;19921;-54
2023/07/25 10:09:10;;;;;;;;;;;21.10;65.50;;;;;;5057271;28;20003;-54
2023/07/25 10:11:35;;;;;;;;;;;21.10;65.50;;;;;;5059230;28;19948;-54
2023/07/25 10:14:01;;;;;;;;;;;21.10;65.70;;;;;;5056456;28;19917;-54
2023/07/25 10:16:26;;;;;;;;;;;21.10;65.70;;;;;;5051061;28;19912;-54
2023/07/25 10:18:52;;;;;;;;;;;21.10;65.70;;;;;;5062975;28;19908;-54
2023/07/25 10:21:17;;;;;;;;;;;21.10;65.70;;;;;;5056123;28;19912;-53
2023/07/25 10:23:43;;;;;;;;;;;21.10;65.50;;;;;;5051000;28;19991;-54
2023/07/25 10:26:10;;;;;;;;;;;21.10;65.40;;;;;;5063033;28;19923;-54
2023/07/25 10:28:35;;;;;;;;;;;21.00;65.30;;;;;;5054303;28;19986;-54
2023/07/25 10:31:00;;;;;;;;;;;21.10;65.30;;;;;;5051298;28;20365;-53
2023/07/25 10:33:26;;;;;;;;;;;21.10;65.30;;;;;;5063253;28;19912;-53
2023/07/25 10:35:56;;;;;;;;;;;21.10;65.30;;;;;;5056236;28;19919;-53
2023/07/25 10:38:31;;;;;;;;;;;21.20;65.60;;;;;;5064152;28;21558;-54
2023/07/25 10:40:57;;;;;;;;;;;21.20;65.20;;;;;;5059573;28;19967;-54
2023/07/25 10:43:30;;;;;;;;;;;21.30;65.70;;;;;;5056529;28;19913;-54
2023/07/25 10:45:56;;;;;;;;;;;21.30;65.40;;;;;;5056409;28;20014;-53
2023/07/25 10:48:31;;;;;;;;;;;21.30;64.80;;;;;;5055834;28;19928;-53
2023/07/25 10:50:57;;;;;;;;;;;21.30;65.20;;;;;;5056386;28;19956;-54
2023/07/25 10:53:24;;;;;;;;;;;21.30;65.00;;;;;;5054993;28;20381;-53
2023/07/25 10:56:05;;;;;;;;;;;21.30;65.00;;;;;;5041392;28;19960;-53
2023/07/25 10:58:31;;;;;;;;;;;21.30;64.20;;;;;;5065022;28;19916;-53
2023/07/25 11:00:57;;;;;;;;;;;21.20;64.00;;;;;;5052286;28;19908;-53
2023/07/25 11:03:27;;;;;;;;;;;21.20;63.70;;;;;;5059470;28;19970;-55
2023/07/25 11:05:53;;;;;;;;;;;21.20;63.80;;;;;;5056873;28;20357;-54
2023/07/25 11:08:18;;;;;;;;;;;21.10;63.60;;;;;;5054021;28;19919;-53
2023/07/25 11:10:44;;;;;;;;;;;21.10;63.60;;;;;;5061693;28;19917;-53
2023/07/25 11:13:09;;;;;;;;;;;21.00;63.70;;;;;;5052361;28;19940;-54
2023/07/25 11:15:35;;;;;;;;;;;21.00;63.80;;;;;;5052931;28;19924;-54
2023/07/25 11:18:06;;;;;;;;;;;21.00;63.80;;;;;;5056757;28;20535;-53
2023/07/25 11:20:32;;;;;;;;;;;21.00;63.70;;;;;;5061428;28;19944;-53
2023/07/25 11:22:57;;;;;;;;;;;21.00;63.70;;;;;;5060517;28;19959;-54
2023/07/25 11:25:23;;;;;;;;;;;21.00;63.30;;;;;;5060391;28;19913;-54
2023/07/25 11:27:48;;;;;;;;;;;21.00;63.20;;;;;;5059983;28;19917;-53
2023/07/25 11:30:14;;;;;;;;;;;21.10;63.20;;;;;;5055712;28;19920;-54
2023/07/25 11:32:44;;;;;;;;;;;21.10;63.10;;;;;;5075768;28;20050;-53
2023/07/25 11:35:10;;;;;;;;;;;21.10;63.00;;;;;;5055441;28;19913;-53
2023/07/25 11:37:35;;;;;;;;;;;21.10;62.90;;;;;;5053705;28;19913;-53
2023/07/25 11:40:31;;;;;;;;;;;21.10;62.80;;;;;;5060893;28;19908;-53
2023/07/25 11:42:57;;;;;;;;;;;21.10;62.90;;;;;;5035944;28;20363;-54
2023/07/25 11:45:22;;;;;;;;;;;21.10;62.80;;;;;;5055103;28;19916;-53
2023/07/25 11:47:50;;;;;;;;;;;21.20;62.90;;;;;;5053402;28;19925;-53
2023/07/25 11:50:15;;;;;;;;;;;21.20;62.90;;;;;;5053556;28;19924;-54
2023/07/25 11:52:41;;;;;;;;;;;21.20;62.90;;;;;;5054531;28;19919;-54
2023/07/25 11:55:07;;;;;;;;;;;21.20;62.80;;;;;;5060123;28;19913;-53
2023/07/25 11:57:33;;;;;;;;;;;21.20;62.70;;;;;;5052355;28;19919;-53
2023/07/25 11:59:58;;;;;;;;;;;21.20;62.70;;;;;;5053073;28;19921;-54
2023/07/25 12:02:24;;;;;;;;;;;21.20;62.80;;;;;;5055310;28;19916;-53
2023/07/25 12:04:50;;;;;;;;;;;21.30;62.90;;;;;;5065093;28;20377;-54
2023/07/25 12:07:15;;;;;;;;;;;21.30;63.00;;;;;;5062216;28;19924;-52
2023/07/25 12:09:53;;;;;;;;;;;21.30;62.80;;;;;;5050575;28;19921;-53
2023/07/25 12:12:21;;;;;;;;;;;21.40;63.20;;;;;;5067526;28;19925;-54
2023/07/25 12:14:54;;;;;;;;;;;21.40;63.20;;;;;;5054494;28;20046;-54
2023/07/25 12:17:19;;;;;;;;;;;21.40;62.60;;;;;;5055984;28;20036;-54
2023/07/25 12:19:51;;;;;;;;;;;21.40;62.80;;;;;;5064173;28;20027;-54
2023/07/25 12:22:18;;;;;;;;;;;21.40;62.80;;;;;;5053897;28;19963;-54
2023/07/25 12:24:43;;;;;;;;;;;21.40;62.70;;;;;;5056428;28;19928;-54
2023/07/25 12:27:18;;;;;;;;;;;21.40;63.40;;;;;;5049780;28;19917;-54
2023/07/25 12:29:44;;;;;;;;;;;21.40;62.60;;;;;;5049790;28;20324;-54
2023/07/25 12:32:11;;;;;;;;;;;21.40;62.40;;;;;;5052937;28;19920;-53
2023/07/25 12:34:36;;;;;;;;;;;21.40;62.30;;;;;;5052586;28;19959;-53
2023/07/25 12:37:02;;;;;;;;;;;21.40;61.90;;;;;;5051783;28;19944;-54
2023/07/25 12:39:29;;;;;;;;;;;21.40;62.00;;;;;;5050748;28;19909;-53
2023/07/25 12:41:55;;;;;;;;;;;21.40;61.60;;;;;;5054141;28;19908;-54
2023/07/25 12:44:21;;;;;;;;;;;21.40;61.60;;;;;;5054102;28;19974;-53
2023/07/25 12:46:46;;;;;;;;;;;21.40;62.40;;;;;;5050852;28;19917;-54
2023/07/25 12:49:11;;;;;;;;;;;21.40;60.70;;;;;;5050686;28;19920;-55
2023/07/25 12:51:37;;;;;;;;;;;21.40;61.00;;;;;;5053825;28;19913;-53
2023/07/25 12:54:02;;;;;;;;;;;21.40;59.50;;;;;;5054772;28;20334;-54
2023/07/25 12:56:28;;;;;;;;;;;21.40;59.70;;;;;;5057274;28;20265;-53
2023/07/25 12:58:54;;;;;;;;;;;21.50;59.50;;;;;;5052620;28;19920;-54
2023/07/25 13:01:20;;;;;;;;;;;21.50;58.70;;;;;;5051881;28;19921;-53
2023/07/25 13:03:45;;;;;;;;;;;21.40;58.70;;;;;;5050341;28;20262;-54
2023/07/25 13:06:11;;;;;;;;;;;21.40;58.90;;;;;;5051763;28;20011;-53
2023/07/25 13:08:36;;;;;;;;;;;21.40;58.90;;;;;;5054684;28;19923;-54
2023/07/25 13:11:02;;;;;;;;;;;21.40;58.40;;;;;;5060949;28;21479;-54
2023/07/25 13:13:27;;;;;;;;;;;21.40;58.00;;;;;;5060456;28;19920;-54
2023/07/25 13:15:52;;;;;;;;;;;21.40;57.50;;;;;;5058110;28;19917;-53
2023/07/25 13:18:18;;;;;;;;;;;21.30;57.50;;;;;;5058984;28;19952;-54
2023/07/25 13:20:43;;;;;;;;;;;21.40;57.50;;;;;;5061613;28;19908;-53
2023/07/25 13:23:12;;;;;;;;;;;21.40;57.70;;;;;;5057959;28;19928;-53
2023/07/25 13:25:43;;;;;;;;;;;21.30;58.60;;;;;;5064394;28;19909;-54
2023/07/25 13:28:08;;;;;;;;;;;21.40;57.70;;;;;;5077479;28;19916;-53
2023/07/25 13:30:33;;;;;;;;;;;21.40;57.00;;;;;;5056778;28;20257;-52
2023/07/25 13:32:59;;;;;;;;;;;21.40;56.80;;;;;;5061706;28;19982;-53
2023/07/25 13:35:24;;;;;;;;;;;21.40;57.30;;;;;;5059725;28;19999;-53
2023/07/25 13:37:50;;;;;;;;;;;21.40;57.10;;;;;;5058929;28;19951;-54
2023/07/25 13:40:15;;;;;;;;;;;21.40;57.00;;;;;;5053951;28;19909;-53
2023/07/25 13:42:41;;;;;;;;;;;21.40;57.20;;;;;;5067825;28;19922;-53
2023/07/25 13:45:07;;;;;;;;;;;21.50;56.70;;;;;;5067316;28;20007;-55
2023/07/25 13:47:32;;;;;;;;;;;21.50;56.20;;;;;;5056219;28;19923;-54
2023/07/25 13:50:00;;;;;;;;;;;21.50;56.20;;;;;;5059591;28;20419;-54
2023/07/25 13:52:26;;;;;;;;;;;21.50;55.80;;;;;;5054157;28;19951;-54
2023/07/25 13:54:51;;;;;;;;;;;21.50;55.60;;;;;;5057551;28;19960;-54
2023/07/25 13:57:17;;;;;;;;;;;21.50;56.10;;;;;;5056628;28;19916;-54
2023/07/25 13:59:42;;;;;;;;;;;21.50;56.20;;;;;;5059834;28;19913;-55
2023/07/25 14:02:07;;;;;;;;;;;21.50;56.10;;;;;;5060782;28;19912;-54
2023/07/25 14:04:33;;;;;;;;;;;21.50;55.60;;;;;;5057338;28;19912;-53
2023/07/25 14:06:59;;;;;;;;;;;21.50;56.20;;;;;;5058738;28;19916;-54
2023/07/25 14:09:24;;;;;;;;;;;21.50;54.50;;;;;;5054230;28;20433;-54